sensor_id;sensor_type;location;lat;lon;timestamp;P1;durP1;ratioP1;P2;durP2;ratioP2
20245;SDS011;10281;54.406;18.556;2023-07-09T00:00:11;10.13;;;6.20;;
20245;SDS011;10281;54.406;18.556;2023-07-09T00:02:39;8.00;;;6.17;;
20245;SDS011;10281;54.406;18.556;2023-07-09T00:05:09;8.07;;;6.63;;
20245;SDS011;10281;54.406;18.556;2023-07-09T00:07:37;8.13;;;6.90;;
20245;SDS011;10281;54.406;18.556;2023-07-09T00:10:05;8.27;;;6.70;;
20245;SDS011;10281;54.406;18.556;2023-07-09T00:12:40;8.23;;;7.40;;
20245;SDS011;10281;54.406;18.556;2023-07-09T00:15:07;13.40;;;7.37;;
20245;SDS011;10281;54.406;18.556;2023-07-09T00:17:35;9.47;;;7.30;;
20245;SDS011;10281;54.406;18.556;2023-07-09T00:20:03;9.70;;;8.40;;
20245;SDS011;10281;54.406;18.556;2023-07-09T00:22:33;8.73;;;7.83;;
20245;SDS011;10281;54.406;18.556;2023-07-09T00:25:00;10.40;;;7.60;;
20245;SDS011;10281;54.406;18.556;2023-07-09T00:27:28;8.97;;;8.07;;
20245;SDS011;10281;54.406;18.556;2023-07-09T00:29:56;9.87;;;8.87;;
20245;SDS011;10281;54.406;18.556;2023-07-09T00:32:23;9.53;;;8.10;;
20245;SDS011;10281;54.406;18.556;2023-07-09T00:34:50;10.33;;;8.27;;
20245;SDS011;10281;54.406;18.556;2023-07-09T00:37:20;10.27;;;9.17;;
20245;SDS011;10281;54.406;18.556;2023-07-09T00:39:51;10.97;;;8.70;;
20245;SDS011;10281;54.406;18.556;2023-07-09T00:42:19;12.07;;;8.83;;
20245;SDS011;10281;54.406;18.556;2023-07-09T00:44:49;9.37;;;8.20;;
20245;SDS011;10281;54.406;18.556;2023-07-09T00:47:23;10.17;;;8.50;;
20245;SDS011;10281;54.406;18.556;2023-07-09T00:49:56;9.60;;;8.27;;
20245;SDS011;10281;54.406;18.556;2023-07-09T00:52:38;10.37;;;8.47;;
20245;SDS011;10281;54.406;18.556;2023-07-09T00:55:08;12.00;;;8.60;;
20245;SDS011;10281;54.406;18.556;2023-07-09T00:57:37;12.23;;;8.83;;
20245;SDS011;10281;54.406;18.556;2023-07-09T01:00:09;10.60;;;9.53;;
20245;SDS011;10281;54.406;18.556;2023-07-09T01:02:40;9.60;;;8.63;;
20245;SDS011;10281;54.406;18.556;2023-07-09T01:05:10;9.83;;;8.73;;
20245;SDS011;10281;54.406;18.556;2023-07-09T01:07:38;11.10;;;9.13;;
20245;SDS011;10281;54.406;18.556;2023-07-09T01:10:05;8.77;;;7.87;;
20245;SDS011;10281;54.406;18.556;2023-07-09T01:12:32;12.40;;;8.30;;
20245;SDS011;10281;54.406;18.556;2023-07-09T01:14:59;9.63;;;8.47;;
20245;SDS011;10281;54.406;18.556;2023-07-09T01:17:26;10.00;;;8.13;;
20245;SDS011;10281;54.406;18.556;2023-07-09T01:19:55;10.30;;;8.70;;
20245;SDS011;10281;54.406;18.556;2023-07-09T01:22:23;9.93;;;8.70;;
20245;SDS011;10281;54.406;18.556;2023-07-09T01:24:54;10.10;;;8.77;;
20245;SDS011;10281;54.406;18.556;2023-07-09T01:27:32;9.77;;;8.77;;
20245;SDS011;10281;54.406;18.556;2023-07-09T01:29:59;12.37;;;9.20;;
20245;SDS011;10281;54.406;18.556;2023-07-09T01:32:27;11.03;;;9.00;;
20245;SDS011;10281;54.406;18.556;2023-07-09T01:34:55;12.37;;;9.23;;
20245;SDS011;10281;54.406;18.556;2023-07-09T01:37:24;12.13;;;8.47;;
20245;SDS011;10281;54.406;18.556;2023-07-09T01:39:53;10.43;;;8.73;;
20245;SDS011;10281;54.406;18.556;2023-07-09T01:42:21;11.60;;;9.80;;
20245;SDS011;10281;54.406;18.556;2023-07-09T01:44:50;9.40;;;8.20;;
20245;SDS011;10281;54.406;18.556;2023-07-09T01:47:19;12.20;;;8.73;;
20245;SDS011;10281;54.406;18.556;2023-07-09T01:49:47;11.17;;;9.57;;
20245;SDS011;10281;54.406;18.556;2023-07-09T01:52:14;11.03;;;9.37;;
20245;SDS011;10281;54.406;18.556;2023-07-09T01:54:44;15.33;;;9.57;;
20245;SDS011;10281;54.406;18.556;2023-07-09T01:57:16;14.70;;;8.87;;
20245;SDS011;10281;54.406;18.556;2023-07-09T01:59:48;11.87;;;8.73;;
20245;SDS011;10281;54.406;18.556;2023-07-09T02:02:16;11.30;;;9.10;;
20245;SDS011;10281;54.406;18.556;2023-07-09T02:04:47;12.83;;;8.93;;
20245;SDS011;10281;54.406;18.556;2023-07-09T02:07:15;10.37;;;9.27;;
20245;SDS011;10281;54.406;18.556;2023-07-09T02:09:42;12.40;;;9.53;;
20245;SDS011;10281;54.406;18.556;2023-07-09T02:12:10;13.10;;;9.00;;
20245;SDS011;10281;54.406;18.556;2023-07-09T02:14:37;11.43;;;8.93;;
20245;SDS011;10281;54.406;18.556;2023-07-09T02:17:05;10.13;;;8.67;;
20245;SDS011;10281;54.406;18.556;2023-07-09T02:19:32;11.73;;;9.27;;
20245;SDS011;10281;54.406;18.556;2023-07-09T02:21:59;11.43;;;9.73;;
20245;SDS011;10281;54.406;18.556;2023-07-09T02:24:25;12.67;;;9.10;;
20245;SDS011;10281;54.406;18.556;2023-07-09T02:26:53;11.00;;;9.40;;
20245;SDS011;10281;54.406;18.556;2023-07-09T02:29:21;10.03;;;8.67;;
20245;SDS011;10281;54.406;18.556;2023-07-09T02:31:49;10.30;;;9.20;;
20245;SDS011;10281;54.406;18.556;2023-07-09T02:34:17;11.17;;;9.50;;
20245;SDS011;10281;54.406;18.556;2023-07-09T02:36:45;12.20;;;10.07;;
20245;SDS011;10281;54.406;18.556;2023-07-09T02:39:13;10.00;;;8.93;;
20245;SDS011;10281;54.406;18.556;2023-07-09T02:41:40;12.23;;;9.50;;
20245;SDS011;10281;54.406;18.556;2023-07-09T02:44:07;11.93;;;9.87;;
20245;SDS011;10281;54.406;18.556;2023-07-09T02:46:34;11.73;;;9.17;;
20245;SDS011;10281;54.406;18.556;2023-07-09T02:49:03;10.97;;;9.30;;
20245;SDS011;10281;54.406;18.556;2023-07-09T02:51:30;13.00;;;8.47;;
20245;SDS011;10281;54.406;18.556;2023-07-09T02:53:59;10.50;;;8.77;;
20245;SDS011;10281;54.406;18.556;2023-07-09T02:56:27;12.07;;;9.10;;
20245;SDS011;10281;54.406;18.556;2023-07-09T02:58:54;13.83;;;10.17;;
20245;SDS011;10281;54.406;18.556;2023-07-09T03:01:21;11.53;;;9.30;;
20245;SDS011;10281;54.406;18.556;2023-07-09T03:03:50;12.17;;;9.97;;
20245;SDS011;10281;54.406;18.556;2023-07-09T03:06:19;12.93;;;10.40;;
20245;SDS011;10281;54.406;18.556;2023-07-09T03:08:47;11.53;;;10.03;;
20245;SDS011;10281;54.406;18.556;2023-07-09T03:11:15;13.23;;;10.03;;
20245;SDS011;10281;54.406;18.556;2023-07-09T03:13:42;14.47;;;10.13;;
20245;SDS011;10281;54.406;18.556;2023-07-09T03:16:09;13.30;;;10.13;;
20245;SDS011;10281;54.406;18.556;2023-07-09T03:18:37;13.47;;;11.10;;
20245;SDS011;10281;54.406;18.556;2023-07-09T03:21:03;11.57;;;10.20;;
20245;SDS011;10281;54.406;18.556;2023-07-09T03:23:30;12.47;;;10.27;;
20245;SDS011;10281;54.406;18.556;2023-07-09T03:25:57;13.63;;;11.57;;
20245;SDS011;10281;54.406;18.556;2023-07-09T03:28:25;14.27;;;10.93;;
20245;SDS011;10281;54.406;18.556;2023-07-09T03:30:53;15.00;;;10.80;;
20245;SDS011;10281;54.406;18.556;2023-07-09T03:33:22;13.93;;;10.97;;
20245;SDS011;10281;54.406;18.556;2023-07-09T03:35:50;16.47;;;10.80;;
20245;SDS011;10281;54.406;18.556;2023-07-09T03:38:17;14.30;;;11.27;;
20245;SDS011;10281;54.406;18.556;2023-07-09T03:40:44;13.17;;;9.67;;
20245;SDS011;10281;54.406;18.556;2023-07-09T03:43:11;13.23;;;10.70;;
20245;SDS011;10281;54.406;18.556;2023-07-09T03:45:38;13.80;;;11.03;;
20245;SDS011;10281;54.406;18.556;2023-07-09T03:48:05;14.70;;;11.93;;
20245;SDS011;10281;54.406;18.556;2023-07-09T03:50:32;16.07;;;12.53;;
20245;SDS011;10281;54.406;18.556;2023-07-09T03:52:59;16.80;;;11.70;;
20245;SDS011;10281;54.406;18.556;2023-07-09T03:55:25;14.77;;;11.30;;
20245;SDS011;10281;54.406;18.556;2023-07-09T03:57:53;16.83;;;12.07;;
20245;SDS011;10281;54.406;18.556;2023-07-09T04:00:21;13.43;;;11.90;;
20245;SDS011;10281;54.406;18.556;2023-07-09T04:02:48;14.47;;;12.07;;
20245;SDS011;10281;54.406;18.556;2023-07-09T04:05:15;15.07;;;11.17;;
20245;SDS011;10281;54.406;18.556;2023-07-09T04:07:41;13.70;;;10.80;;
20245;SDS011;10281;54.406;18.556;2023-07-09T04:10:08;14.23;;;10.97;;
20245;SDS011;10281;54.406;18.556;2023-07-09T04:12:35;12.83;;;10.40;;
20245;SDS011;10281;54.406;18.556;2023-07-09T04:15:03;15.87;;;10.93;;
20245;SDS011;10281;54.406;18.556;2023-07-09T04:17:31;13.80;;;10.40;;
20245;SDS011;10281;54.406;18.556;2023-07-09T04:19:58;12.10;;;9.97;;
20245;SDS011;10281;54.406;18.556;2023-07-09T04:22:25;15.13;;;10.77;;
20245;SDS011;10281;54.406;18.556;2023-07-09T04:24:51;13.23;;;9.73;;
20245;SDS011;10281;54.406;18.556;2023-07-09T04:27:18;10.67;;;9.03;;
20245;SDS011;10281;54.406;18.556;2023-07-09T04:29:45;10.23;;;8.33;;
20245;SDS011;10281;54.406;18.556;2023-07-09T04:32:12;10.30;;;9.27;;
20245;SDS011;10281;54.406;18.556;2023-07-09T04:34:40;11.33;;;9.00;;
20245;SDS011;10281;54.406;18.556;2023-07-09T04:37:08;11.40;;;8.40;;
20245;SDS011;10281;54.406;18.556;2023-07-09T04:39:37;11.90;;;8.10;;
20245;SDS011;10281;54.406;18.556;2023-07-09T04:42:05;11.40;;;7.63;;
20245;SDS011;10281;54.406;18.556;2023-07-09T04:44:34;11.73;;;8.80;;
20245;SDS011;10281;54.406;18.556;2023-07-09T04:47:01;11.50;;;8.60;;
20245;SDS011;10281;54.406;18.556;2023-07-09T04:49:27;11.37;;;8.30;;
20245;SDS011;10281;54.406;18.556;2023-07-09T04:51:54;10.67;;;8.30;;
20245;SDS011;10281;54.406;18.556;2023-07-09T04:54:22;11.80;;;8.03;;
20245;SDS011;10281;54.406;18.556;2023-07-09T04:56:49;11.33;;;7.87;;
20245;SDS011;10281;54.406;18.556;2023-07-09T04:59:16;8.60;;;7.27;;
20245;SDS011;10281;54.406;18.556;2023-07-09T05:01:43;12.97;;;7.10;;
20245;SDS011;10281;54.406;18.556;2023-07-09T05:04:09;9.53;;;6.83;;
20245;SDS011;10281;54.406;18.556;2023-07-09T05:06:36;10.37;;;7.27;;
20245;SDS011;10281;54.406;18.556;2023-07-09T05:09:04;8.63;;;7.33;;
20245;SDS011;10281;54.406;18.556;2023-07-09T05:14:00;9.33;;;6.73;;
20245;SDS011;10281;54.406;18.556;2023-07-09T05:16:26;8.03;;;6.33;;
20245;SDS011;10281;54.406;18.556;2023-07-09T05:18:53;7.33;;;6.40;;
20245;SDS011;10281;54.406;18.556;2023-07-09T05:21:19;8.47;;;6.70;;
20245;SDS011;10281;54.406;18.556;2023-07-09T05:23:46;10.30;;;6.30;;
20245;SDS011;10281;54.406;18.556;2023-07-09T05:26:13;8.03;;;6.50;;
20245;SDS011;10281;54.406;18.556;2023-07-09T05:28:39;9.93;;;6.40;;
20245;SDS011;10281;54.406;18.556;2023-07-09T05:31:06;7.97;;;6.57;;
20245;SDS011;10281;54.406;18.556;2023-07-09T05:33:33;7.60;;;6.50;;
20245;SDS011;10281;54.406;18.556;2023-07-09T05:36:00;8.73;;;6.53;;
20245;SDS011;10281;54.406;18.556;2023-07-09T05:38:27;9.93;;;6.33;;
20245;SDS011;10281;54.406;18.556;2023-07-09T05:41:00;8.77;;;6.87;;
20245;SDS011;10281;54.406;18.556;2023-07-09T05:43:28;9.17;;;6.80;;
20245;SDS011;10281;54.406;18.556;2023-07-09T05:45:55;7.60;;;6.40;;
20245;SDS011;10281;54.406;18.556;2023-07-09T05:48:22;8.00;;;6.50;;
20245;SDS011;10281;54.406;18.556;2023-07-09T05:50:53;8.07;;;6.37;;
20245;SDS011;10281;54.406;18.556;2023-07-09T05:53:18;9.33;;;5.57;;
20245;SDS011;10281;54.406;18.556;2023-07-09T05:55:44;7.93;;;6.20;;
20245;SDS011;10281;54.406;18.556;2023-07-09T05:58:11;8.47;;;5.30;;
20245;SDS011;10281;54.406;18.556;2023-07-09T06:00:38;7.23;;;5.20;;
20245;SDS011;10281;54.406;18.556;2023-07-09T06:03:06;6.77;;;5.13;;
20245;SDS011;10281;54.406;18.556;2023-07-09T06:05:33;7.37;;;5.43;;
20245;SDS011;10281;54.406;18.556;2023-07-09T06:08:05;7.23;;;4.90;;
20245;SDS011;10281;54.406;18.556;2023-07-09T06:10:32;6.50;;;4.47;;
20245;SDS011;10281;54.406;18.556;2023-07-09T06:12:59;6.00;;;4.70;;
20245;SDS011;10281;54.406;18.556;2023-07-09T06:15:25;4.47;;;4.07;;
20245;SDS011;10281;54.406;18.556;2023-07-09T06:17:52;4.70;;;4.13;;
20245;SDS011;10281;54.406;18.556;2023-07-09T06:20:19;3.50;;;2.90;;
20245;SDS011;10281;54.406;18.556;2023-07-09T06:22:45;4.67;;;3.47;;
20245;SDS011;10281;54.406;18.556;2023-07-09T06:25:12;7.70;;;5.13;;
20245;SDS011;10281;54.406;18.556;2023-07-09T06:27:39;6.90;;;3.13;;
20245;SDS011;10281;54.406;18.556;2023-07-09T06:30:06;11.80;;;5.87;;
20245;SDS011;10281;54.406;18.556;2023-07-09T06:32:33;3.23;;;2.60;;
20245;SDS011;10281;54.406;18.556;2023-07-09T06:35:00;2.87;;;1.80;;
20245;SDS011;10281;54.406;18.556;2023-07-09T06:37:26;2.57;;;1.83;;
20245;SDS011;10281;54.406;18.556;2023-07-09T06:39:53;1.53;;;1.40;;
20245;SDS011;10281;54.406;18.556;2023-07-09T06:42:19;3.00;;;2.00;;
20245;SDS011;10281;54.406;18.556;2023-07-09T06:44:46;2.80;;;1.90;;
20245;SDS011;10281;54.406;18.556;2023-07-09T06:47:12;2.90;;;1.77;;
20245;SDS011;10281;54.406;18.556;2023-07-09T06:49:39;2.00;;;1.73;;
20245;SDS011;10281;54.406;18.556;2023-07-09T06:52:06;3.80;;;2.77;;
20245;SDS011;10281;54.406;18.556;2023-07-09T06:54:33;5.07;;;3.17;;
20245;SDS011;10281;54.406;18.556;2023-07-09T06:56:59;2.17;;;1.60;;
20245;SDS011;10281;54.406;18.556;2023-07-09T06:59:26;2.43;;;2.03;;
20245;SDS011;10281;54.406;18.556;2023-07-09T07:01:52;1.70;;;1.60;;
20245;SDS011;10281;54.406;18.556;2023-07-09T07:04:19;2.70;;;1.87;;
20245;SDS011;10281;54.406;18.556;2023-07-09T07:06:46;3.73;;;2.67;;
20245;SDS011;10281;54.406;18.556;2023-07-09T07:09:12;3.67;;;2.10;;
20245;SDS011;10281;54.406;18.556;2023-07-09T07:11:39;4.27;;;2.23;;
20245;SDS011;10281;54.406;18.556;2023-07-09T07:14:06;7.73;;;3.63;;
20245;SDS011;10281;54.406;18.556;2023-07-09T07:16:32;2.23;;;2.03;;
20245;SDS011;10281;54.406;18.556;2023-07-09T07:18:59;2.27;;;2.07;;
20245;SDS011;10281;54.406;18.556;2023-07-09T07:21:25;2.67;;;2.20;;
20245;SDS011;10281;54.406;18.556;2023-07-09T07:23:52;3.03;;;2.10;;
20245;SDS011;10281;54.406;18.556;2023-07-09T07:26:19;2.83;;;2.10;;
20245;SDS011;10281;54.406;18.556;2023-07-09T07:28:46;2.40;;;1.90;;
20245;SDS011;10281;54.406;18.556;2023-07-09T07:31:12;2.60;;;2.10;;
20245;SDS011;10281;54.406;18.556;2023-07-09T07:33:39;10.13;;;6.20;;
20245;SDS011;10281;54.406;18.556;2023-07-09T07:36:07;6.10;;;4.27;;
20245;SDS011;10281;54.406;18.556;2023-07-09T07:38:35;29.60;;;15.07;;
20245;SDS011;10281;54.406;18.556;2023-07-09T07:41:02;22.80;;;11.93;;
20245;SDS011;10281;54.406;18.556;2023-07-09T07:43:28;3.17;;;1.87;;
20245;SDS011;10281;54.406;18.556;2023-07-09T07:45:55;2.73;;;1.93;;
20245;SDS011;10281;54.406;18.556;2023-07-09T07:48:22;3.63;;;2.57;;
20245;SDS011;10281;54.406;18.556;2023-07-09T07:50:48;7.57;;;4.23;;
20245;SDS011;10281;54.406;18.556;2023-07-09T07:53:15;8.47;;;3.97;;
20245;SDS011;10281;54.406;18.556;2023-07-09T07:55:42;3.67;;;2.33;;
20245;SDS011;10281;54.406;18.556;2023-07-09T07:58:11;12.23;;;4.60;;
20245;SDS011;10281;54.406;18.556;2023-07-09T08:00:38;5.50;;;3.30;;
20245;SDS011;10281;54.406;18.556;2023-07-09T08:03:06;3.13;;;1.90;;
20245;SDS011;10281;54.406;18.556;2023-07-09T08:05:32;2.10;;;1.90;;
20245;SDS011;10281;54.406;18.556;2023-07-09T08:07:59;2.80;;;2.27;;
20245;SDS011;10281;54.406;18.556;2023-07-09T08:10:26;6.90;;;3.17;;
20245;SDS011;10281;54.406;18.556;2023-07-09T08:12:53;2.37;;;2.10;;
20245;SDS011;10281;54.406;18.556;2023-07-09T08:15:21;1.73;;;1.60;;
20245;SDS011;10281;54.406;18.556;2023-07-09T08:17:49;5.67;;;2.50;;
20245;SDS011;10281;54.406;18.556;2023-07-09T08:20:15;2.63;;;2.00;;
20245;SDS011;10281;54.406;18.556;2023-07-09T08:22:42;4.10;;;2.17;;
20245;SDS011;10281;54.406;18.556;2023-07-09T08:25:09;2.30;;;2.00;;
20245;SDS011;10281;54.406;18.556;2023-07-09T08:27:36;3.23;;;2.20;;
20245;SDS011;10281;54.406;18.556;2023-07-09T08:30:03;2.53;;;1.90;;
20245;SDS011;10281;54.406;18.556;2023-07-09T08:32:30;3.37;;;2.30;;
20245;SDS011;10281;54.406;18.556;2023-07-09T08:34:57;3.00;;;1.60;;
20245;SDS011;10281;54.406;18.556;2023-07-09T08:37:23;2.00;;;1.80;;
20245;SDS011;10281;54.406;18.556;2023-07-09T08:39:50;2.10;;;1.63;;
20245;SDS011;10281;54.406;18.556;2023-07-09T08:42:21;2.53;;;1.70;;
20245;SDS011;10281;54.406;18.556;2023-07-09T08:47:37;2.90;;;1.97;;
20245;SDS011;10281;54.406;18.556;2023-07-09T08:50:07;2.63;;;1.80;;
20245;SDS011;10281;54.406;18.556;2023-07-09T08:52:37;1.93;;;1.73;;
20245;SDS011;10281;54.406;18.556;2023-07-09T08:55:07;2.50;;;1.77;;
20245;SDS011;10281;54.406;18.556;2023-07-09T08:57:39;1.97;;;1.70;;
20245;SDS011;10281;54.406;18.556;2023-07-09T09:00:14;1.83;;;1.60;;
20245;SDS011;10281;54.406;18.556;2023-07-09T09:03:00;2.03;;;1.90;;
20245;SDS011;10281;54.406;18.556;2023-07-09T09:05:29;1.73;;;1.50;;
20245;SDS011;10281;54.406;18.556;2023-07-09T09:08:02;2.33;;;1.70;;
20245;SDS011;10281;54.406;18.556;2023-07-09T09:10:35;4.80;;;2.03;;
20245;SDS011;10281;54.406;18.556;2023-07-09T09:13:09;3.23;;;1.97;;
20245;SDS011;10281;54.406;18.556;2023-07-09T09:15:38;2.00;;;1.90;;
20245;SDS011;10281;54.406;18.556;2023-07-09T09:18:25;2.33;;;2.00;;
20245;SDS011;10281;54.406;18.556;2023-07-09T09:23:38;3.90;;;2.77;;
20245;SDS011;10281;54.406;18.556;2023-07-09T09:26:16;5.53;;;3.90;;
20245;SDS011;10281;54.406;18.556;2023-07-09T09:28:37;3.10;;;1.90;;
20245;SDS011;10281;54.406;18.556;2023-07-09T09:31:04;5.27;;;2.80;;
20245;SDS011;10281;54.406;18.556;2023-07-09T09:33:45;2.43;;;2.00;;
20245;SDS011;10281;54.406;18.556;2023-07-09T09:36:15;3.07;;;1.77;;
20245;SDS011;10281;54.406;18.556;2023-07-09T09:38:44;2.63;;;2.10;;
20245;SDS011;10281;54.406;18.556;2023-07-09T09:41:13;1.77;;;1.40;;
20245;SDS011;10281;54.406;18.556;2023-07-09T09:43:42;2.73;;;1.90;;
20245;SDS011;10281;54.406;18.556;2023-07-09T09:46:16;2.17;;;1.70;;
20245;SDS011;10281;54.406;18.556;2023-07-09T09:48:44;1.73;;;1.63;;
20245;SDS011;10281;54.406;18.556;2023-07-09T09:51:12;2.43;;;1.87;;
20245;SDS011;10281;54.406;18.556;2023-07-09T09:53:40;1.90;;;1.70;;
20245;SDS011;10281;54.406;18.556;2023-07-09T09:56:13;3.37;;;1.67;;
20245;SDS011;10281;54.406;18.556;2023-07-09T09:58:43;3.23;;;1.70;;
20245;SDS011;10281;54.406;18.556;2023-07-09T10:01:13;2.03;;;1.73;;
20245;SDS011;10281;54.406;18.556;2023-07-09T10:03:41;2.60;;;1.87;;
20245;SDS011;10281;54.406;18.556;2023-07-09T10:06:13;2.53;;;2.00;;
20245;SDS011;10281;54.406;18.556;2023-07-09T10:08:53;1.90;;;1.70;;
20245;SDS011;10281;54.406;18.556;2023-07-09T10:11:26;2.10;;;1.90;;
20245;SDS011;10281;54.406;18.556;2023-07-09T10:14:01;2.20;;;2.00;;
20245;SDS011;10281;54.406;18.556;2023-07-09T10:16:36;2.27;;;1.70;;
20245;SDS011;10281;54.406;18.556;2023-07-09T10:19:14;2.57;;;1.80;;
20245;SDS011;10281;54.406;18.556;2023-07-09T10:21:47;2.40;;;2.00;;
20245;SDS011;10281;54.406;18.556;2023-07-09T10:24:33;1.87;;;1.60;;
20245;SDS011;10281;54.406;18.556;2023-07-09T10:27:11;2.90;;;1.70;;
20245;SDS011;10281;54.406;18.556;2023-07-09T10:29:49;1.83;;;1.63;;
20245;SDS011;10281;54.406;18.556;2023-07-09T10:35:29;2.30;;;2.00;;
20245;SDS011;10281;54.406;18.556;2023-07-09T10:40:36;1.80;;;1.70;;
20245;SDS011;10281;54.406;18.556;2023-07-09T10:43:14;4.67;;;1.83;;
20245;SDS011;10281;54.406;18.556;2023-07-09T10:45:40;3.47;;;2.07;;
20245;SDS011;10281;54.406;18.556;2023-07-09T10:48:15;2.00;;;1.80;;
20245;SDS011;10281;54.406;18.556;2023-07-09T10:50:46;2.00;;;1.80;;
20245;SDS011;10281;54.406;18.556;2023-07-09T10:53:24;2.10;;;1.83;;
20245;SDS011;10281;54.406;18.556;2023-07-09T10:55:52;2.87;;;1.70;;
20245;SDS011;10281;54.406;18.556;2023-07-09T10:58:44;2.07;;;1.73;;
20245;SDS011;10281;54.406;18.556;2023-07-09T11:01:15;1.90;;;1.50;;
20245;SDS011;10281;54.406;18.556;2023-07-09T11:03:49;1.97;;;1.70;;
20245;SDS011;10281;54.406;18.556;2023-07-09T11:06:19;1.93;;;1.60;;
20245;SDS011;10281;54.406;18.556;2023-07-09T11:08:49;1.93;;;1.70;;
20245;SDS011;10281;54.406;18.556;2023-07-09T11:11:23;2.07;;;1.87;;
20245;SDS011;10281;54.406;18.556;2023-07-09T11:13:53;1.70;;;1.60;;
20245;SDS011;10281;54.406;18.556;2023-07-09T11:16:25;2.53;;;1.90;;
20245;SDS011;10281;54.406;18.556;2023-07-09T11:19:00;2.23;;;1.70;;
20245;SDS011;10281;54.406;18.556;2023-07-09T11:21:29;2.40;;;1.83;;
20245;SDS011;10281;54.406;18.556;2023-07-09T11:23:57;1.93;;;1.73;;
20245;SDS011;10281;54.406;18.556;2023-07-09T11:26:31;1.70;;;1.60;;
20245;SDS011;10281;54.406;18.556;2023-07-09T11:31:44;2.00;;;1.80;;
20245;SDS011;10281;54.406;18.556;2023-07-09T11:34:18;2.20;;;1.97;;
20245;SDS011;10281;54.406;18.556;2023-07-09T11:36:50;2.57;;;2.10;;
20245;SDS011;10281;54.406;18.556;2023-07-09T11:39:27;2.40;;;2.10;;
20245;SDS011;10281;54.406;18.556;2023-07-09T11:41:56;2.10;;;1.90;;
20245;SDS011;10281;54.406;18.556;2023-07-09T11:44:24;2.70;;;2.13;;
20245;SDS011;10281;54.406;18.556;2023-07-09T11:49:59;2.80;;;2.27;;
20245;SDS011;10281;54.406;18.556;2023-07-09T11:52:32;1.87;;;1.77;;
20245;SDS011;10281;54.406;18.556;2023-07-09T11:55:03;3.07;;;2.27;;
20245;SDS011;10281;54.406;18.556;2023-07-09T11:57:37;2.63;;;2.20;;
20245;SDS011;10281;54.406;18.556;2023-07-09T12:00:03;3.40;;;2.23;;
20245;SDS011;10281;54.406;18.556;2023-07-09T12:02:32;2.40;;;2.20;;
20245;SDS011;10281;54.406;18.556;2023-07-09T12:05:00;2.13;;;1.90;;
20245;SDS011;10281;54.406;18.556;2023-07-09T12:07:29;2.00;;;1.83;;
20245;SDS011;10281;54.406;18.556;2023-07-09T12:09:56;2.43;;;2.10;;
20245;SDS011;10281;54.406;18.556;2023-07-09T12:12:24;2.30;;;2.10;;
20245;SDS011;10281;54.406;18.556;2023-07-09T12:14:52;3.23;;;1.67;;
20245;SDS011;10281;54.406;18.556;2023-07-09T12:17:18;2.13;;;1.93;;
20245;SDS011;10281;54.406;18.556;2023-07-09T12:19:47;2.50;;;1.87;;
20245;SDS011;10281;54.406;18.556;2023-07-09T12:22:17;2.33;;;1.83;;
20245;SDS011;10281;54.406;18.556;2023-07-09T12:24:46;3.10;;;2.00;;
20245;SDS011;10281;54.406;18.556;2023-07-09T12:27:22;2.33;;;1.93;;
20245;SDS011;10281;54.406;18.556;2023-07-09T12:29:53;2.33;;;2.13;;
20245;SDS011;10281;54.406;18.556;2023-07-09T12:32:21;2.47;;;1.80;;
20245;SDS011;10281;54.406;18.556;2023-07-09T12:34:50;3.60;;;2.00;;
20245;SDS011;10281;54.406;18.556;2023-07-09T12:37:18;2.07;;;1.97;;
20245;SDS011;10281;54.406;18.556;2023-07-09T12:39:49;2.13;;;1.93;;
20245;SDS011;10281;54.406;18.556;2023-07-09T12:42:20;2.70;;;1.93;;
20245;SDS011;10281;54.406;18.556;2023-07-09T12:44:51;2.10;;;1.70;;
20245;SDS011;10281;54.406;18.556;2023-07-09T12:47:18;1.70;;;1.60;;
20245;SDS011;10281;54.406;18.556;2023-07-09T12:49:48;2.10;;;1.90;;
20245;SDS011;10281;54.406;18.556;2023-07-09T12:52:18;2.20;;;1.80;;
20245;SDS011;10281;54.406;18.556;2023-07-09T12:54:55;2.70;;;1.93;;
20245;SDS011;10281;54.406;18.556;2023-07-09T12:57:22;2.17;;;1.90;;
20245;SDS011;10281;54.406;18.556;2023-07-09T12:59:49;2.90;;;1.83;;
20245;SDS011;10281;54.406;18.556;2023-07-09T13:02:18;1.97;;;1.73;;
20245;SDS011;10281;54.406;18.556;2023-07-09T13:04:48;2.07;;;1.80;;
20245;SDS011;10281;54.406;18.556;2023-07-09T13:07:29;2.23;;;1.70;;
20245;SDS011;10281;54.406;18.556;2023-07-09T13:10:14;1.70;;;1.60;;
20245;SDS011;10281;54.406;18.556;2023-07-09T13:12:44;1.90;;;1.70;;
20245;SDS011;10281;54.406;18.556;2023-07-09T13:15:20;1.77;;;1.60;;
20245;SDS011;10281;54.406;18.556;2023-07-09T13:17:50;4.00;;;2.10;;
20245;SDS011;10281;54.406;18.556;2023-07-09T13:20:23;2.23;;;1.80;;
20245;SDS011;10281;54.406;18.556;2023-07-09T13:22:50;2.90;;;1.70;;
20245;SDS011;10281;54.406;18.556;2023-07-09T13:25:17;1.90;;;1.80;;
20245;SDS011;10281;54.406;18.556;2023-07-09T13:27:44;1.83;;;1.73;;
20245;SDS011;10281;54.406;18.556;2023-07-09T13:30:11;2.63;;;1.80;;
20245;SDS011;10281;54.406;18.556;2023-07-09T13:32:38;2.47;;;1.80;;
20245;SDS011;10281;54.406;18.556;2023-07-09T13:37:41;2.47;;;2.07;;
20245;SDS011;10281;54.406;18.556;2023-07-09T13:40:09;2.10;;;1.87;;
20245;SDS011;10281;54.406;18.556;2023-07-09T13:42:38;3.00;;;2.17;;
20245;SDS011;10281;54.406;18.556;2023-07-09T13:45:15;2.20;;;2.00;;
20245;SDS011;10281;54.406;18.556;2023-07-09T13:47:42;2.27;;;2.07;;
20245;SDS011;10281;54.406;18.556;2023-07-09T13:50:09;5.33;;;2.70;;
20245;SDS011;10281;54.406;18.556;2023-07-09T13:52:36;3.60;;;2.47;;
20245;SDS011;10281;54.406;18.556;2023-07-09T13:55:02;2.93;;;2.60;;
20245;SDS011;10281;54.406;18.556;2023-07-09T13:57:30;3.67;;;2.77;;
20245;SDS011;10281;54.406;18.556;2023-07-09T13:59:57;4.30;;;2.80;;
20245;SDS011;10281;54.406;18.556;2023-07-09T14:02:24;3.33;;;2.70;;
20245;SDS011;10281;54.406;18.556;2023-07-09T14:04:58;3.30;;;2.27;;
20245;SDS011;10281;54.406;18.556;2023-07-09T14:07:27;2.60;;;2.40;;
20245;SDS011;10281;54.406;18.556;2023-07-09T14:09:58;3.07;;;2.50;;
20245;SDS011;10281;54.406;18.556;2023-07-09T14:12:26;2.50;;;2.30;;
20245;SDS011;10281;54.406;18.556;2023-07-09T14:14:55;2.30;;;2.10;;
20245;SDS011;10281;54.406;18.556;2023-07-09T14:17:24;3.37;;;2.17;;
20245;SDS011;10281;54.406;18.556;2023-07-09T14:19:52;2.87;;;2.60;;
20245;SDS011;10281;54.406;18.556;2023-07-09T14:22:20;2.30;;;2.10;;
20245;SDS011;10281;54.406;18.556;2023-07-09T14:24:49;2.93;;;2.27;;
20245;SDS011;10281;54.406;18.556;2023-07-09T14:27:17;5.40;;;4.20;;
20245;SDS011;10281;54.406;18.556;2023-07-09T14:29:44;3.57;;;3.13;;
20245;SDS011;10281;54.406;18.556;2023-07-09T14:32:27;3.20;;;2.63;;
20245;SDS011;10281;54.406;18.556;2023-07-09T14:35:00;3.20;;;2.77;;
20245;SDS011;10281;54.406;18.556;2023-07-09T14:37:28;3.77;;;2.60;;
20245;SDS011;10281;54.406;18.556;2023-07-09T14:39:54;3.60;;;2.80;;
20245;SDS011;10281;54.406;18.556;2023-07-09T14:42:22;3.90;;;2.90;;
20245;SDS011;10281;54.406;18.556;2023-07-09T14:44:48;3.10;;;2.80;;
20245;SDS011;10281;54.406;18.556;2023-07-09T14:47:17;4.53;;;3.20;;
20245;SDS011;10281;54.406;18.556;2023-07-09T14:49:45;3.03;;;2.57;;
20245;SDS011;10281;54.406;18.556;2023-07-09T14:52:14;3.13;;;2.73;;
20245;SDS011;10281;54.406;18.556;2023-07-09T14:54:43;4.70;;;3.23;;
20245;SDS011;10281;54.406;18.556;2023-07-09T14:57:19;3.57;;;2.70;;
20245;SDS011;10281;54.406;18.556;2023-07-09T14:59:48;5.03;;;2.90;;